Time;durP1;ratioP1;P1;durP2;ratioP2;P2;SDS_P1;SDS_P2;PMS_P1;PMS_P2;Temp;Humidity;BMP_temperature;BMP_pressure;BME280_temperature;BME280_humidity;BME280_pressure;Samples;Min_cycle;Max_cycle;Signal;HPM_P1;HPM_P2
2022/04/26 03:37:58;;;;;;;18.60;11.07;;;;;;;8.09;100.00;99479.41;5034425;28;20046;-50
2022/04/26 03:40:42;;;;;;;17.88;12.90;;;;;;;8.09;100.00;99482.88;5025673;28;20088;-50
2022/04/26 03:43:28;;;;;;;20.52;14.30;;;;;;;8.09;100.00;99482.88;5026176;28;20049;-50
2022/04/26 03:46:12;;;;;;;21.60;14.38;;;;;;;8.07;100.00;99484.66;5026614;28;20480;-51
2022/04/26 03:48:57;;;;;;;23.98;15.48;;;;;;;7.92;100.00;99485.81;5041587;28;20483;-51
2022/04/26 03:51:41;;;;;;;22.67;15.43;;;;;;;7.85;100.00;99486.81;5034794;28;20152;-51
2022/04/26 03:54:26;;;;;;;19.73;14.18;;;;;;;7.96;100.00;99487.50;5046303;28;20053;-52
2022/04/26 03:57:11;;;;;;;18.80;13.30;;;;;;;7.94;100.00;99491.00;5034402;28;21000;-50
2022/04/26 03:59:56;;;;;;;20.27;14.88;;;;;;;7.92;100.00;99495.38;5035227;28;20046;-50
2022/04/26 04:02:40;;;;;;;20.92;15.50;;;;;;;7.85;100.00;99489.41;5026038;28;20060;-51
2022/04/26 04:05:25;;;;;;;51.50;28.27;;;;;;;7.97;100.00;99494.41;5025339;28;20045;-50
2022/04/26 04:08:09;;;;;;;35.70;23.83;;;;;;;7.90;100.00;99494.56;5024367;28;20057;-51
2022/04/26 04:10:54;;;;;;;27.27;17.45;;;;;;;8.02;100.00;99503.88;5025089;28;20049;-50
2022/04/26 04:13:38;;;;;;;52.08;26.48;;;;;;;8.04;100.00;99504.72;5024956;28;20477;-51
2022/04/26 04:16:23;;;;;;;209.90;86.35;;;;;;;8.04;100.00;99510.78;5025192;28;20153;-50
2022/04/26 04:19:23;;;;;;;204.70;90.13;;;;;;;8.05;100.00;99511.66;5025041;28;20041;-51
2022/04/26 04:22:07;;;;;;;103.00;51.42;;;;;;;7.96;100.00;99517.91;5024922;28;20057;-51
2022/04/26 04:24:52;;;;;;;40.33;25.63;;;;;;;7.91;100.00;99514.53;5025476;28;20056;-50
2022/04/26 04:27:37;;;;;;;22.35;16.40;;;;;;;7.89;100.00;99517.16;5031340;28;20103;-51
2022/04/26 04:30:21;;;;;;;24.35;15.35;;;;;;;7.85;100.00;99525.94;5042570;28;20037;-51
2022/04/26 04:33:07;;;;;;;20.20;14.70;;;;;;;7.90;100.00;99526.72;5030565;28;20057;-50
2022/04/26 04:35:51;;;;;;;34.63;19.98;;;;;;;7.89;100.00;99519.75;5023682;28;20053;-51
2022/04/26 04:38:36;;;;;;;82.93;41.00;;;;;;;8.01;100.00;99533.47;5022500;28;20056;-50
2022/04/26 04:41:20;;;;;;;643.55;270.00;;;;;;;7.91;100.00;99531.03;5030782;28;20049;-52
2022/04/26 04:44:06;;;;;;;558.53;234.85;;;;;;;8.08;100.00;99530.72;5025415;28;20305;-51
2022/04/26 04:46:50;;;;;;;725.10;317.55;;;;;;;7.97;100.00;99535.28;5024250;28;20050;-51
2022/04/26 04:49:35;;;;;;;543.15;244.43;;;;;;;7.89;100.00;99543.22;5029270;28;20407;-51
2022/04/26 04:52:19;;;;;;;257.38;118.47;;;;;;;8.02;100.00;99545.63;5032075;28;20372;-51
2022/04/26 04:55:06;;;;;;;277.48;151.35;;;;;;;8.01;100.00;99542.16;5031714;28;20055;-51
2022/04/26 04:57:50;;;;;;;190.43;112.03;;;;;;;8.10;100.00;99547.19;5029864;28;20088;-51
2022/04/26 05:00:35;;;;;;;51.53;33.92;;;;;;;8.09;100.00;99545.50;5031231;28;20061;-52
2022/04/26 05:03:19;;;;;;;29.60;17.02;;;;;;;8.11;100.00;99548.06;5026101;28;20963;-52
2022/04/26 05:06:04;;;;;;;20.77;14.07;;;;;;;8.07;100.00;99552.47;5030919;28;20057;-52
2022/04/26 05:08:48;;;;;;;17.20;12.95;;;;;;;8.14;100.00;99559.28;5029652;28;20046;-51
2022/04/26 05:11:33;;;;;;;18.60;13.60;;;;;;;8.06;100.00;99557.72;5029619;28;20044;-52
2022/04/26 05:14:19;;;;;;;26.05;16.20;;;;;;;8.06;100.00;99565.53;5030870;28;20045;-50
2022/04/26 05:17:04;;;;;;;74.72;33.67;;;;;;;8.20;100.00;99555.72;5026634;28;20060;-52
2022/04/26 05:19:48;;;;;;;37.58;23.55;;;;;;;7.94;100.00;99566.63;5022874;28;20049;-51
2022/04/26 05:24:53;;;;;;;37.70;22.50;;;;;;;8.00;100.00;99565.66;5029023;28;20054;-51
2022/04/26 05:25:40;;;;;;;25.52;18.58;;;;;;;8.10;100.00;99564.59;5025270;28;20605;-51
2022/04/26 05:28:24;;;;;;;24.10;16.77;;;;;;;8.20;100.00;99569.63;5025623;28;20712;-51
2022/04/26 05:31:09;;;;;;;22.88;16.02;;;;;;;8.23;100.00;99575.66;5026447;28;20061;-51
2022/04/26 05:33:54;;;;;;;32.90;19.95;;;;;;;8.17;100.00;99579.25;5025592;28;20053;-51
2022/04/26 05:36:38;;;;;;;25.20;17.67;;;;;;;8.20;100.00;99580.03;5027312;28;20383;-51
2022/04/26 05:39:23;;;;;;;24.73;19.35;;;;;;;8.15;100.00;99581.00;5026899;28;20898;-51
2022/04/26 05:42:07;;;;;;;32.08;21.20;;;;;;;8.09;100.00;99574.19;5028779;28;20057;-51
2022/04/26 05:44:52;;;;;;;35.40;22.20;;;;;;;8.04;100.00;99583.84;5027895;28;20056;-51
2022/04/26 05:47:46;;;;;;;30.23;18.60;;;;;;;8.05;100.00;99579.47;5027037;28;20292;-51
2022/04/26 05:50:30;;;;;;;29.38;17.42;;;;;;;8.00;100.00;99582.19;5025597;28;20045;-51
2022/04/26 05:53:15;;;;;;;26.27;17.70;;;;;;;8.09;100.00;99581.13;5029749;28;20654;-51
2022/04/26 05:55:59;;;;;;;27.90;16.63;;;;;;;8.34;100.00;99585.00;5027784;28;20053;-52
2022/04/26 05:58:44;;;;;;;24.83;17.42;;;;;;;8.38;100.00;99591.03;5027484;28;20045;-52
2022/04/26 06:01:28;;;;;;;19.67;14.85;;;;;;;8.69;100.00;99591.31;5031759;28;20112;-50
2022/04/26 06:04:13;;;;;;;20.48;15.40;;;;;;;9.45;100.00;99580.03;5029481;28;20060;-53
2022/04/26 06:07:00;;;;;;;17.63;13.75;;;;;;;10.16;100.00;99582.56;5005951;28;20045;-52
2022/04/26 06:09:46;;;;;;;17.30;12.52;;;;;;;10.22;100.00;99577.16;5022718;28;20811;-51
2022/04/26 06:12:31;;;;;;;16.08;12.13;;;;;;;9.81;100.00;99592.22;5027925;28;20064;-52
2022/04/26 06:15:17;;;;;;;13.73;10.00;;;;;;;9.46;100.00;99592.22;5032325;28;20518;-52
2022/04/26 06:18:01;;;;;;;16.40;10.55;;;;;;;9.24;100.00;99597.94;5028046;28;20631;-53
2022/04/26 06:20:46;;;;;;;17.52;9.20;;;;;;;9.18;100.00;99595.47;5032084;28;20045;-52
2022/04/26 06:23:31;;;;;;;15.15;9.80;;;;;;;9.31;100.00;99598.66;5027754;28;20111;-52
2022/04/26 06:26:16;;;;;;;14.88;10.20;;;;;;;9.23;100.00;99603.19;5035255;28;20045;-52
2022/04/26 06:29:01;;;;;;;17.55;9.70;;;;;;;9.34;100.00;99609.03;5031584;28;20056;-52
2022/04/26 06:31:46;;;;;;;12.00;8.30;;;;;;;9.56;100.00;99605.03;5026939;28;20057;-52
2022/04/26 06:34:31;;;;;;;11.55;7.72;;;;;;;9.81;100.00;99597.44;5028292;28;20057;-52
2022/04/26 06:37:16;;;;;;;14.60;9.48;;;;;;;9.87;100.00;99606.88;5028587;28;20051;-52
2022/04/26 06:40:01;;;;;;;11.65;9.02;;;;;;;9.86;100.00;99606.91;5032223;28;20824;-52
2022/04/26 06:42:46;;;;;;;13.82;9.48;;;;;;;9.67;100.00;99612.59;5029499;28;20065;-51
2022/04/26 06:45:30;;;;;;;13.23;9.40;;;;;;;9.60;100.00;99622.34;5028408;28;20471;-52
2022/04/26 06:48:17;;;;;;;12.98;9.43;;;;;;;9.40;100.00;99614.13;5034170;28;20049;-53
2022/04/26 06:51:01;;;;;;;14.75;10.50;;;;;;;9.52;100.00;99623.41;5033127;28;20056;-52
2022/04/26 06:53:45;;;;;;;18.85;11.00;;;;;;;9.28;100.00;99625.72;5029905;28;20057;-52
2022/04/26 06:56:30;;;;;;;15.70;11.93;;;;;;;9.34;100.00;99630.78;5032317;28;20057;-52
2022/04/26 06:59:15;;;;;;;18.63;11.88;;;;;;;9.48;100.00;99624.38;5032799;28;20045;-50
2022/04/26 07:01:59;;;;;;;13.73;9.93;;;;;;;9.35;100.00;99629.91;5035808;28;20048;-51
2022/04/26 07:04:43;;;;;;;13.55;9.13;;;;;;;9.44;100.00;99628.84;5036443;28;20049;-51
2022/04/26 07:07:28;;;;;;;10.73;7.75;;;;;;;9.40;100.00;99631.56;5035842;28;20464;-52
2022/04/26 07:10:13;;;;;;;13.70;8.63;;;;;;;9.42;100.00;99640.22;5036258;28;20053;-52
2022/04/26 07:12:58;;;;;;;8.75;6.88;;;;;;;9.58;100.00;99633.72;5035623;28;20691;-52
2022/04/26 07:15:43;;;;;;;9.65;6.93;;;;;;;9.42;100.00;99641.06;5030956;28;20037;-51
2022/04/26 07:18:28;;;;;;;9.85;6.97;;;;;;;9.39;100.00;99637.66;5035226;28;20041;-52
2022/04/26 07:21:13;;;;;;;9.32;7.05;;;;;;;9.52;100.00;99644.34;5034207;28;20895;-52
2022/04/26 07:23:57;;;;;;;11.50;8.70;;;;;;;9.37;100.00;99645.56;5030710;28;20099;-52
2022/04/26 07:26:43;;;;;;;12.23;8.75;;;;;;;9.65;100.00;99639.66;5028110;28;20057;-52
2022/04/26 07:29:27;;;;;;;11.85;8.43;;;;;;;9.58;100.00;99647.66;5029875;28;20045;-52
2022/04/26 07:32:12;;;;;;;9.20;6.70;;;;;;;9.48;100.00;99655.75;5030170;28;20535;-52
2022/04/26 07:35:00;;;;;;;10.65;7.85;;;;;;;9.47;100.00;99654.06;5027649;28;20486;-52
2022/04/26 07:37:44;;;;;;;10.85;7.45;;;;;;;9.70;100.00;99659.59;5041277;28;20128;-51
2022/04/26 07:40:31;;;;;;;12.05;8.43;;;;;;;9.58;100.00;99665.97;5026824;28;20046;-52
2022/04/26 07:43:16;;;;;;;18.02;12.77;;;;;;;9.37;100.00;99669.09;5024992;28;20672;-52
2022/04/26 07:46:00;;;;;;;14.40;10.35;;;;;;;9.59;100.00;99666.84;5027627;28;20917;-52
2022/04/26 07:48:45;;;;;;;14.23;9.30;;;;;;;9.59;100.00;99672.94;5031953;28;20476;-52
2022/04/26 07:51:30;;;;;;;10.65;8.13;;;;;;;9.73;100.00;99667.38;5030122;28;20057;-52
2022/04/26 07:54:16;;;;;;;13.07;7.38;;;;;;;9.80;100.00;99675.94;5027817;28;20060;-52
2022/04/26 07:57:01;;;;;;;9.98;6.32;;;;;;;9.86;100.00;99680.16;5029870;28;20057;-52
2022/04/26 07:59:45;;;;;;;7.30;6.00;;;;;;;9.91;100.00;99681.78;5028486;28;20049;-51
2022/04/26 08:02:29;;;;;;;8.05;5.25;;;;;;;10.36;100.00;99680.66;5031625;28;20057;-51
2022/04/26 08:05:14;;;;;;;6.75;5.72;;;;;;;10.45;100.00;99681.28;5036164;28;20045;-52
2022/04/26 08:07:59;;;;;;;6.35;4.60;;;;;;;10.86;100.00;99681.94;5033726;28;20060;-53
2022/04/26 08:10:43;;;;;;;8.35;4.90;;;;;;;10.84;100.00;99688.97;5021715;28;20048;-53
2022/04/26 08:13:28;;;;;;;5.72;4.80;;;;;;;10.80;100.00;99686.47;5025297;28;20041;-54
2022/04/26 08:16:13;;;;;;;7.13;4.60;;;;;;;10.93;100.00;99685.22;5022628;28;20488;-53
2022/04/26 08:18:57;;;;;;;6.00;4.25;;;;;;;11.49;100.00;99684.47;5023581;28;20042;-53
2022/04/26 08:21:42;;;;;;;7.80;4.65;;;;;;;11.62;100.00;99698.91;5024535;28;20091;-54
2022/04/26 08:27:33;;;;;;;6.72;5.07;;;;;;;11.24;100.00;99700.91;5030461;28;20053;-54
2022/04/26 08:30:17;;;;;;;6.32;4.40;;;;;;;11.18;100.00;99701.97;5028853;28;20045;-53
2022/04/26 08:33:01;;;;;;;18.10;10.68;;;;;;;11.17;100.00;99704.63;5029967;28;20107;-52
2022/04/26 08:35:46;;;;;;;7.47;5.15;;;;;;;11.31;100.00;99710.34;5031265;28;20049;-52
2022/04/26 08:38:30;;;;;;;6.22;4.60;;;;;;;11.23;100.00;99701.81;5031375;28;20065;-52
2022/04/26 08:41:15;;;;;;;7.93;4.63;;;;;;;11.12;100.00;99719.66;5031488;28;20160;-52
2022/04/26 08:44:00;;;;;;;5.85;4.97;;;;;;;11.29;100.00;99713.91;5025672;28;20147;-53
2022/04/26 08:52:51;;;;;;;7.72;5.28;;;;;;;11.84;100.00;99712.22;5028148;28;20049;-52
2022/04/26 08:56:03;;;;;;;7.82;5.25;;;;;;;12.09;100.00;99718.44;5031379;28;20041;-52
2022/04/26 08:58:50;;;;;;;7.90;5.20;;;;;;;12.29;100.00;99723.03;5035131;28;20177;-52
2022/04/26 09:01:35;;;;;;;4.75;4.15;;;;;;;12.39;100.00;99719.19;5029973;28;20368;-53
2022/04/26 09:04:19;;;;;;;6.38;5.07;;;;;;;12.26;100.00;99722.28;5035046;28;20041;-53
2022/04/26 09:07:03;;;;;;;7.47;5.50;;;;;;;12.47;100.00;99708.41;5034339;28;20042;-53
2022/04/26 09:09:48;;;;;;;10.93;5.68;;;;;;;12.76;100.00;99720.53;5033091;28;20057;-53
2022/04/26 09:13:04;;;;;;;6.40;4.85;;;;;;;13.37;100.00;99727.13;5033139;28;20586;-53
2022/04/26 09:15:54;;;;;;;5.90;4.60;;;;;;;12.56;100.00;99723.00;5031505;28;20037;-53
2022/04/26 09:18:38;;;;;;;7.22;4.80;;;;;;;12.69;100.00;99728.69;5034876;28;20049;-52
2022/04/26 09:21:27;;;;;;;10.13;4.18;;;;;;;12.89;100.00;99735.88;5029193;28;20573;-52
2022/04/26 09:24:12;;;;;;;6.82;3.85;;;;;;;12.76;100.00;99730.19;5034803;28;20155;-52
2022/04/26 09:26:57;;;;;;;5.88;4.03;;;;;;;13.10;100.00;99735.97;5030940;28;20053;-53
2022/04/26 09:29:47;;;;;;;5.07;3.97;;;;;;;13.68;100.00;99738.22;5030433;28;20400;-53
2022/04/26 09:32:48;;;;;;;5.32;4.40;;;;;;;13.30;100.00;99732.63;5024942;28;20061;-52
2022/04/26 09:35:34;;;;;;;5.25;4.70;;;;;;;13.45;100.00;99739.06;5024883;28;20053;-52
2022/04/26 09:38:25;;;;;;;4.07;3.33;;;;;;;13.55;100.00;99743.09;5025679;28;20052;-52
2022/04/26 09:41:10;;;;;;;3.83;2.92;;;;;;;13.52;100.00;99734.44;5025735;28;20148;-52
2022/04/26 09:43:58;;;;;;;3.10;2.80;;;;;;;13.73;100.00;99733.59;5026239;28;20057;-53
2022/04/26 09:46:43;;;;;;;3.95;3.00;;;;;;;13.97;98.11;99734.44;5026449;28;20049;-52
2022/04/26 09:49:35;;;;;;;6.25;4.22;;;;;;;13.76;96.31;99730.84;5026955;28;20653;-52
2022/04/26 09:52:19;;;;;;;15.17;9.50;;;;;;;13.61;98.45;99733.22;5026731;28;20045;-53
2022/04/26 09:55:06;;;;;;;5.13;3.83;;;;;;;13.91;95.87;99737.31;5027122;28;20578;-53
2022/04/26 09:57:51;;;;;;;6.10;3.63;;;;;;;13.76;96.11;99728.22;5024629;28;20056;-53
2022/04/26 10:00:39;;;;;;;4.45;3.65;;;;;;;13.94;95.00;99737.19;5025745;28;20045;-51
2022/04/26 10:03:29;;;;;;;2.67;2.47;;;;;;;14.24;93.56;99737.72;5026838;28;20053;-52
2022/04/26 10:06:16;;;;;;;3.58;2.78;;;;;;;14.00;92.90;99736.91;5025047;28;20049;-52
2022/04/26 10:09:03;;;;;;;3.95;3.10;;;;;;;13.71;92.85;99732.78;5025812;28;20164;-53
2022/04/26 10:11:53;;;;;;;4.50;3.95;;;;;;;13.94;92.50;99737.19;5025693;28;21689;-52
2022/04/26 10:14:38;;;;;;;4.75;3.45;;;;;;;13.96;91.44;99735.31;5025214;28;20096;-53
2022/04/26 10:17:23;;;;;;;3.67;2.95;;;;;;;14.30;90.21;99733.09;5025008;28;20868;-52
2022/04/26 10:20:28;;;;;;;5.13;4.63;;;;;;;14.11;90.05;99723.31;5025462;28;20090;-53
2022/04/26 10:23:13;;;;;;;4.57;3.45;;;;;;;14.33;90.23;99736.47;5020532;28;20060;-52
2022/04/26 10:26:25;;;;;;;4.53;3.95;;;;;;;13.92;92.85;99735.53;5035532;28;20045;-52
2022/04/26 10:29:10;;;;;;;5.32;4.43;;;;;;;13.46;96.88;99739.94;5006668;28;20053;-53
2022/04/26 10:31:59;;;;;;;8.45;5.20;;;;;;;13.29;96.60;99732.66;5024707;28;20128;-52
2022/04/26 10:34:45;;;;;;;7.55;4.43;;;;;;;13.38;98.74;99742.84;5027132;28;20053;-53
2022/04/26 10:37:31;;;;;;;6.10;4.63;;;;;;;13.26;98.36;99733.66;5025202;28;20068;-52
2022/04/26 10:40:15;;;;;;;5.75;4.18;;;;;;;13.19;97.55;99733.88;5030085;28;20053;-53
2022/04/26 10:43:06;;;;;;;4.60;4.15;;;;;;;13.58;93.86;99739.44;5027619;28;20053;-53
2022/04/26 10:46:17;;;;;;;3.25;2.95;;;;;;;14.35;92.40;99728.50;5028101;28;20050;-52
2022/04/26 10:49:24;;;;;;;4.68;3.75;;;;;;;14.30;91.16;99736.59;5011990;28;20053;-52
2022/04/26 10:52:10;;;;;;;4.97;4.00;;;;;;;14.14;93.01;99731.09;5024243;28;20046;-53
2022/04/26 10:55:06;;;;;;;6.10;4.38;;;;;;;14.15;92.44;99732.81;5030607;28;20104;-53
2022/04/26 10:57:51;;;;;;;5.82;4.32;;;;;;;14.07;94.18;99728.75;5032882;28;20056;-52
2022/04/26 11:00:37;;;;;;;4.25;3.85;;;;;;;14.03;90.64;99738.56;5032643;28;20041;-53
2022/04/26 11:03:21;;;;;;;12.00;7.20;;;;;;;14.63;90.77;99730.88;5032710;28;20115;-52
2022/04/26 11:06:06;;;;;;;4.93;3.60;;;;;;;14.91;88.85;99726.06;5026603;28;20053;-51
2022/04/26 11:09:06;;;;;;;7.05;4.13;;;;;;;14.41;89.33;99729.09;5034467;28;20057;-51
2022/04/26 11:11:55;;;;;;;5.22;4.10;;;;;;;14.81;90.54;99722.13;5033812;28;20053;-52
2022/04/26 11:14:40;;;;;;;5.22;3.95;;;;;;;14.73;89.82;99725.13;5040660;28;20378;-52
2022/04/26 11:17:25;;;;;;;4.32;3.60;;;;;;;14.00;89.82;99736.06;5033425;28;20057;-52
2022/04/26 11:20:12;;;;;;;3.55;3.13;;;;;;;14.62;86.81;99731.75;5032882;28;20518;-53
2022/04/26 11:27:59;;;;;;;15.82;9.30;;;;;;;15.15;85.38;99723.28;5028948;28;20049;-52
2022/04/26 11:29:20;;;;;;;4.63;3.63;;;;;;;15.26;81.68;99731.56;5026239;28;20053;-53
2022/04/26 11:32:04;;;;;;;9.02;4.82;;;;;;;14.99;80.53;99722.28;5032822;28;20041;-53
2022/04/26 11:34:49;;;;;;;4.53;2.75;;;;;;;14.75;82.21;99722.41;5030465;28;20052;-52
2022/04/26 11:37:48;;;;;;;2.97;2.67;;;;;;;14.51;81.66;99726.97;5029357;28;20080;-53
2022/04/26 11:40:50;;;;;;;6.15;4.10;;;;;;;14.45;82.07;99732.44;5025311;28;20049;-53
2022/04/26 11:43:35;;;;;;;5.55;3.63;;;;;;;14.41;84.86;99723.81;5027836;28;20057;-51
2022/04/26 11:46:19;;;;;;;3.38;2.70;;;;;;;14.76;83.84;99721.50;5026829;28;20637;-52
2022/04/26 11:49:04;;;;;;;5.05;2.80;;;;;;;14.83;78.85;99730.00;5025536;28;20049;-53
2022/04/26 11:52:00;;;;;;;2.30;2.10;;;;;;;15.26;75.37;99726.28;5030287;28;20049;-52
2022/04/26 11:54:45;;;;;;;5.15;1.90;;;;;;;15.79;72.67;99724.75;5025861;28;20064;-52
2022/04/26 11:57:30;;;;;;;2.78;2.55;;;;;;;16.09;71.30;99719.78;5025409;28;20128;-53
2022/04/26 12:00:21;;;;;;;5.80;2.38;;;;;;;15.96;69.87;99721.31;5031392;28;20053;-52
2022/04/26 12:03:07;;;;;;;2.88;2.55;;;;;;;15.82;68.87;99720.16;5032554;28;20048;-54
2022/04/26 12:05:58;;;;;;;2.15;1.90;;;;;;;15.94;67.81;99724.00;5023319;28;20479;-53
2022/04/26 12:08:50;;;;;;;2.40;2.20;;;;;;;15.90;67.96;99719.81;5022091;28;20160;-54
2022/04/26 12:11:38;;;;;;;2.83;2.40;;;;;;;15.98;70.34;99719.44;5022742;28;20091;-54
2022/04/26 12:14:23;;;;;;;2.65;2.10;;;;;;;15.61;70.23;99719.38;5023960;28;20045;-53
2022/04/26 12:17:29;;;;;;;5.10;4.25;;;;;;;14.99;69.25;99728.41;5023730;28;20385;-52
2022/04/26 12:20:15;;;;;;;3.17;2.85;;;;;;;14.77;71.60;99725.84;5021864;28;20049;-53
2022/04/26 12:23:00;;;;;;;5.10;3.10;;;;;;;14.71;73.30;99726.94;5030802;28;20053;-53
2022/04/26 12:25:53;;;;;;;5.07;3.13;;;;;;;14.58;74.98;99731.03;5030419;28;20056;-53
2022/04/26 12:28:48;;;;;;;8.48;6.40;;;;;;;14.02;77.21;99735.09;5023056;28;20673;-54
2022/04/26 12:31:33;;;;;;;7.47;3.90;;;;;;;14.09;79.38;99729.56;5026314;28;20500;-53
2022/04/26 12:34:21;;;;;;;4.40;3.80;;;;;;;14.09;78.86;99716.41;5031698;28;20063;-52
2022/04/26 12:37:15;;;;;;;3.35;2.90;;;;;;;14.42;78.78;99728.16;5023946;28;20049;-53
2022/04/26 12:40:09;;;;;;;10.48;6.90;;;;;;;14.42;79.86;99730.78;5024612;28;20050;-53
2022/04/26 12:42:56;;;;;;;35.40;17.73;;;;;;;14.10;80.31;99728.63;5032582;28;20045;-51
2022/04/26 12:45:40;;;;;;;6.30;4.82;;;;;;;13.99;80.33;99727.31;5032929;28;20060;-53
2022/04/26 12:51:29;;;;;;;11.48;7.60;;;;;;;13.90;80.02;99719.75;5028876;28;20049;-52
2022/04/26 12:54:13;;;;;;;8.80;6.13;;;;;;;14.28;80.21;99720.00;5024534;28;20056;-53
2022/04/26 12:57:00;;;;;;;8.05;5.15;;;;;;;14.57;79.60;99717.94;5030391;28;20049;-53
2022/04/26 12:59:44;;;;;;;53.10;47.70;;;;;;;14.57;79.11;99712.69;5032650;28;20072;-52
2022/04/26 13:02:29;;;;;;;63.15;26.48;;;;;;;14.82;78.84;99715.97;5032718;28;20049;-53
2022/04/26 13:05:14;;;;;;;12.50;7.13;;;;;;;15.36;77.55;99711.75;5029459;28;20053;-53
2022/04/26 13:07:58;;;;;;;4.85;4.13;;;;;;;15.35;75.08;99712.69;5027880;28;20053;-51
2022/04/26 13:10:44;;;;;;;10.82;5.53;;;;;;;15.38;75.55;99712.53;5032918;28;20056;-51
2022/04/26 13:13:29;;;;;;;23.75;11.13;;;;;;;15.03;74.54;99718.56;5026258;28;20444;-52
2022/04/26 13:16:13;;;;;;;77.18;31.33;;;;;;;14.60;76.83;99716.03;5023948;28;20425;-52
2022/04/26 13:18:57;;;;;;;20.40;18.55;;;;;;;14.62;76.46;99722.06;5022361;28;20049;-51
2022/04/26 13:21:41;;;;;;;7.72;6.85;;;;;;;14.84;77.60;99724.63;5031632;28;20077;-53
2022/04/26 13:24:29;;;;;;;70.60;26.67;;;;;;;14.65;75.32;99721.09;5021663;28;20041;-53
2022/04/26 13:27:13;;;;;;;89.55;39.40;;;;;;;14.55;72.33;99720.63;5023101;28;20171;-53
2022/04/26 13:29:59;;;;;;;50.25;23.02;;;;;;;14.12;73.00;99718.91;5023492;28;20045;-51
2022/04/26 13:32:44;;;;;;;16.15;8.63;;;;;;;13.97;74.95;99726.53;5023871;28;20049;-52
2022/04/26 13:35:29;;;;;;;11.57;7.82;;;;;;;14.09;76.07;99719.03;5020308;28;20061;-52
2022/04/26 13:38:15;;;;;;;9.50;5.97;;;;;;;14.00;76.88;99734.28;5027933;28;20049;-52
2022/04/26 13:41:00;;;;;;;34.17;17.90;;;;;;;14.04;77.10;99724.50;5029337;28;20045;-53
2022/04/26 13:43:45;;;;;;;16.00;8.80;;;;;;;14.21;77.28;99726.44;5029743;28;20061;-54
2022/04/26 13:46:30;;;;;;;11.85;8.95;;;;;;;14.14;78.33;99725.84;5026577;28;20408;-53
2022/04/26 13:49:14;;;;;;;65.25;28.02;;;;;;;13.91;77.65;99728.53;5026235;28;20050;-54
2022/04/26 13:52:11;;;;;;;64.82;26.70;;;;;;;13.84;78.65;99727.91;5024355;28;20046;-54
2022/04/26 13:54:55;;;;;;;19.77;10.50;;;;;;;14.03;77.71;99728.88;5023383;28;20050;-53
2022/04/26 13:57:40;;;;;;;8.15;5.38;;;;;;;14.15;77.24;99726.69;5024651;28;20057;-53
2022/04/26 14:00:24;;;;;;;10.50;5.68;;;;;;;14.17;77.34;99730.97;5020124;28;20045;-52
2022/04/26 14:03:09;;;;;;;6.22;4.80;;;;;;;14.31;77.11;99727.78;5030089;28;20080;-52
2022/04/26 14:05:54;;;;;;;6.28;4.50;;;;;;;13.87;78.19;99730.41;5031505;28;20042;-53
2022/04/26 14:08:40;;;;;;;6.55;5.40;;;;;;;14.10;78.41;99733.91;5034063;28;20057;-52
2022/04/26 14:11:25;;;;;;;8.52;5.82;;;;;;;13.56;79.58;99734.25;5028243;28;20061;-53
2022/04/26 14:23:18;;;;;;;12.70;7.78;;;;;;;13.97;80.48;99734.44;5025247;28;20029;-53
2022/04/26 14:26:03;;;;;;;11.13;7.53;;;;;;;13.92;80.67;99731.09;5024509;28;20834;-51
2022/04/26 14:28:48;;;;;;;35.15;16.48;;;;;;;14.16;79.65;99731.03;5026331;28;20079;-51
2022/04/26 14:31:33;;;;;;;48.20;17.48;;;;;;;14.11;79.71;99727.75;5034080;28;20041;-52
2022/04/26 14:34:17;;;;;;;56.63;18.00;;;;;;;13.63;80.71;99736.66;5029829;28;20046;-53
2022/04/26 14:37:03;;;;;;;64.43;24.00;;;;;;;13.85;80.27;99736.69;5027514;28;20650;-53
2022/04/26 14:39:47;;;;;;;163.98;48.42;;;;;;;13.77;81.69;99729.06;5023878;28;20041;-53
2022/04/26 14:42:32;;;;;;;37.15;14.40;;;;;;;13.85;80.93;99729.66;5025286;28;20053;-53
2022/04/26 14:45:16;;;;;;;21.63;9.50;;;;;;;13.93;81.36;99727.53;5024556;28;20049;-53
2022/04/26 14:48:01;;;;;;;9.73;6.28;;;;;;;13.76;79.74;99733.47;5026960;28;20111;-53
2022/04/26 14:50:46;;;;;;;6.13;4.65;;;;;;;13.98;80.35;99730.00;5027565;28;20045;-52
2022/04/26 14:53:30;;;;;;;62.80;21.67;;;;;;;14.00;80.19;99730.78;5024971;28;20508;-53
2022/04/26 14:56:14;;;;;;;59.58;22.58;;;;;;;13.96;80.70;99729.19;5027407;28;20077;-54
2022/04/26 14:59:01;;;;;;;28.85;12.73;;;;;;;14.06;80.19;99727.91;5029709;28;20408;-53
2022/04/26 15:01:49;;;;;;;15.43;8.32;;;;;;;13.93;79.26;99730.19;5031790;28;20072;-53
2022/04/26 15:04:34;;;;;;;9.52;5.43;;;;;;;14.06;79.49;99727.91;5030394;28;20053;-54
2022/04/26 15:07:18;;;;;;;8.07;5.35;;;;;;;14.12;79.39;99729.44;5023046;28;20042;-53
2022/04/26 15:10:04;;;;;;;33.60;13.38;;;;;;;14.13;79.04;99733.78;5027886;28;20107;-52
2022/04/26 15:18:55;;;;;;;58.10;27.55;;;;;;;13.99;79.27;99732.56;5031749;28;20139;-53
2022/04/26 15:21:44;;;;;;;22.63;13.10;;;;;;;14.15;78.86;99732.81;5032523;28;20102;-54
2022/04/26 15:24:29;;;;;;;11.75;7.60;;;;;;;14.20;78.21;99725.59;5026154;28;20037;-53
2022/04/26 15:27:15;;;;;;;7.63;6.03;;;;;;;14.21;77.92;99726.44;5022771;28;20057;-53
2022/04/26 15:30:00;;;;;;;6.93;5.72;;;;;;;14.26;79.50;99721.81;5023021;28;20053;-53
2022/04/26 15:32:46;;;;;;;5.32;4.35;;;;;;;14.27;78.77;99732.31;5019666;28;20758;-54
2022/04/26 15:35:31;;;;;;;9.48;6.35;;;;;;;14.28;78.63;99727.91;5019938;28;20176;-53
2022/04/26 15:38:16;;;;;;;9.85;6.53;;;;;;;14.32;78.29;99723.34;5027716;28;20758;-53
2022/04/26 15:41:05;;;;;;;9.52;5.72;;;;;;;14.36;78.50;99723.16;5022391;28;20489;-53
2022/04/26 15:43:50;;;;;;;11.23;7.20;;;;;;;14.34;78.47;99717.09;5022667;28;20057;-53
2022/04/26 15:46:35;;;;;;;21.20;12.05;;;;;;;14.40;77.95;99727.38;5024323;28;20046;-53
2022/04/26 15:49:20;;;;;;;27.65;17.02;;;;;;;14.38;78.54;99728.38;5023836;28;20049;-54
2022/04/26 15:52:07;;;;;;;16.85;12.73;;;;;;;14.43;78.33;99726.41;5023487;28;20506;-53
2022/04/26 15:54:51;;;;;;;20.52;14.40;;;;;;;14.48;79.23;99722.63;5021579;28;20068;-54
2022/04/26 15:57:37;;;;;;;18.65;15.70;;;;;;;14.45;78.68;99712.22;5024418;28;20050;-54
2022/04/26 16:00:21;;;;;;;13.05;10.98;;;;;;;14.45;78.38;99727.19;5023526;28;20053;-53
2022/04/26 16:03:05;;;;;;;12.30;10.43;;;;;;;14.42;78.27;99722.91;5023437;28;20080;-53
2022/04/26 16:05:50;;;;;;;15.82;12.55;;;;;;;14.38;78.06;99721.31;5021880;28;20049;-54
2022/04/26 16:08:35;;;;;;;12.52;8.25;;;;;;;14.31;77.61;99722.50;5024753;28;20553;-52
2022/04/26 16:20:29;;;;;;;21.20;14.13;;;;;;;14.19;78.47;99723.84;5021644;28;20049;-53
2022/04/26 16:23:14;;;;;;;13.93;9.32;;;;;;;14.10;78.51;99720.75;5027240;28;20060;-52
2022/04/26 16:26:06;;;;;;;12.63;8.38;;;;;;;14.11;78.44;99723.31;5027126;28;20056;-54
2022/04/26 16:28:54;;;;;;;14.45;10.00;;;;;;;14.07;78.87;99727.00;5029862;28;20535;-53
2022/04/26 16:31:39;;;;;;;21.20;9.38;;;;;;;13.99;77.94;99729.09;5031630;28;20091;-53
2022/04/26 16:34:23;;;;;;;18.40;9.65;;;;;;;13.84;77.19;99729.69;5032327;28;20048;-52
2022/04/26 16:37:08;;;;;;;27.67;17.73;;;;;;;13.87;77.73;99726.94;5030770;28;20053;-53
2022/04/26 16:39:52;;;;;;;25.05;14.27;;;;;;;13.79;77.76;99720.22;5023568;28;20049;-53
2022/04/26 16:42:38;;;;;;;13.23;8.20;;;;;;;13.66;77.28;99739.19;5023251;28;20503;-53
2022/04/26 16:45:23;;;;;;;15.68;9.25;;;;;;;13.62;77.76;99727.06;5022391;28;20049;-54
2022/04/26 16:48:07;;;;;;;17.20;11.85;;;;;;;13.46;79.04;99726.78;5028754;28;20053;-53
2022/04/26 16:50:52;;;;;;;16.27;11.85;;;;;;;13.42;80.16;99728.69;5021175;28;20056;-53
2022/04/26 16:53:37;;;;;;;19.70;13.77;;;;;;;13.29;81.42;99733.53;5030375;28;20048;-54
2022/04/26 16:56:21;;;;;;;15.27;9.85;;;;;;;13.24;81.54;99739.84;5031607;28;20061;-53
2022/04/26 16:59:05;;;;;;;15.68;10.13;;;;;;;13.16;81.67;99737.50;5030712;28;20037;-53
2022/04/26 17:01:51;;;;;;;12.43;9.77;;;;;;;13.02;82.86;99745.88;5031035;28;20049;-51
2022/04/26 17:04:36;;;;;;;21.45;13.60;;;;;;;12.87;83.73;99741.19;5030492;28;20181;-52
2022/04/26 17:07:22;;;;;;;14.25;8.95;;;;;;;12.83;83.49;99735.16;5024124;28;20057;-52
2022/04/26 17:10:06;;;;;;;10.70;7.30;;;;;;;12.78;83.53;99741.50;5022071;28;20050;-53